< < Back
Terminal Aerodrome Forecast


Current Version              Previous Versions:   1  2  3  4  5  6  7  8  9  

Terminal Aerodrome Forecast

257
FTUS42 KGSP 040859 AAB
TAFGSP
TAF AMD
KGSP 040859Z 0409/0506 24006KT P6SM VCSH SCT035 BKN120
      TEMPO 0409/0412 5SM -SHRA BR BKN025
     FM041200 23010G18KT P6SM -SHRA VCTS OVC035CB
     FM041600 23015G25KT P6SM -SHRA BKN040 PROB30 0418/0422 4SM TSRA
      BKN030CB
     FM042200 24014G24KT P6SM VCTS BKN060CB
     FM050000 25009KT P6SM BKN220=

Latest METAR

496
SAUS70 KWBC 041300 RRD
MTRGSP
METAR KGSP 041253Z 22010KT 10SM FEW095 FEW120 23/19 A3000 RMK AO2 SLP148
T02330194


USA.gov is the U.S. government's official web portal to all federal, state and local government web resources and services.